createdAt,value
2023-04-01T00:02:22.412Z,100.00
2023-04-01T00:05:22.374Z,100.00
2023-04-01T00:08:22.345Z,100.00
2023-04-01T00:11:22.342Z,100.00
2023-04-01T00:14:22.365Z,100.00
2023-04-01T00:17:22.342Z,100.00
2023-04-01T00:20:22.389Z,100.00
2023-04-01T00:23:22.349Z,100.00
2023-04-01T00:26:22.641Z,100.00
2023-04-01T00:29:22.393Z,100.00
2023-04-01T00:32:22.546Z,100.00
2023-04-01T00:35:22.353Z,100.00
2023-04-01T00:38:22.340Z,100.00
2023-04-01T00:41:23.391Z,100.00
2023-04-01T00:44:31.385Z,100.00
2023-04-01T00:47:31.342Z,100.00
2023-04-01T00:50:31.380Z,100.00
2023-04-01T00:53:32.342Z,100.00
2023-04-01T00:56:36.338Z,100.00
2023-04-01T00:59:45.366Z,100.00
2023-04-01T01:02:46.489Z,100.00
2023-04-01T01:06:00.368Z,100.00
2023-04-01T01:09:03.338Z,100.00
2023-04-01T01:12:09.341Z,100.00
2023-04-01T01:15:28.356Z,100.00
2023-04-01T01:18:41.341Z,100.00
2023-04-01T01:22:08.376Z,100.00
2023-04-01T01:25:14.366Z,100.00
2023-04-01T01:28:30.393Z,100.00
2023-04-01T01:31:52.381Z,100.00
2023-04-01T01:35:00.353Z,100.00
2023-04-01T01:38:01.342Z,100.00
2023-04-01T01:41:05.379Z,100.00
2023-04-01T01:44:06.343Z,100.00
2023-04-01T01:47:06.393Z,100.00
2023-04-01T01:50:07.378Z,100.00
2023-04-01T01:53:15.348Z,100.00
2023-04-01T01:56:15.382Z,100.00
2023-04-01T01:59:18.351Z,100.00
2023-04-01T02:02:18.371Z,100.00
2023-04-01T02:05:19.367Z,100.00
2023-04-01T02:08:29.386Z,100.00
2023-04-01T02:11:31.404Z,100.00
2023-04-01T02:14:32.393Z,100.00
2023-04-01T02:17:34.402Z,100.00
2023-04-01T02:20:36.342Z,100.00
2023-04-01T02:23:36.344Z,100.00
2023-04-01T02:26:36.351Z,100.00
2023-04-01T02:29:38.376Z,100.00
2023-04-01T02:32:38.391Z,100.00
2023-04-01T02:35:38.386Z,100.00
2023-04-01T02:38:38.398Z,100.00
2023-04-01T02:41:38.353Z,100.00
2023-04-01T02:44:38.378Z,100.00
2023-04-01T02:47:38.437Z,100.00
2023-04-01T02:50:38.406Z,100.00
2023-04-01T02:53:38.348Z,100.00
2023-04-01T02:56:38.398Z,100.00
2023-04-01T02:59:38.370Z,100.00
2023-04-01T03:02:38.439Z,100.00
2023-04-01T03:05:38.392Z,100.00
2023-04-01T03:08:38.341Z,100.00
2023-04-01T03:11:38.367Z,100.00
2023-04-01T03:14:38.337Z,100.00
2023-04-01T03:17:38.451Z,100.00
2023-04-01T03:20:38.413Z,100.00
2023-04-01T03:23:38.353Z,100.00
2023-04-01T03:26:38.347Z,100.00
2023-04-01T03:29:38.382Z,100.00
2023-04-01T03:32:39.416Z,100.00
2023-04-01T03:35:39.340Z,100.00
2023-04-01T03:38:39.383Z,100.00
2023-04-01T03:41:39.372Z,100.00
2023-04-01T03:44:39.369Z,100.00
2023-04-01T03:47:39.378Z,100.00
2023-04-01T03:50:39.350Z,100.00
2023-04-01T03:53:39.384Z,100.00
2023-04-01T03:56:39.378Z,100.00
2023-04-01T03:59:39.337Z,100.00
2023-04-01T04:02:39.390Z,100.00
2023-04-01T04:05:40.347Z,100.00
2023-04-01T04:08:40.351Z,100.00
2023-04-01T04:11:40.397Z,100.00
2023-04-01T04:14:40.366Z,100.00
2023-04-01T04:17:40.464Z,100.00
2023-04-01T04:20:40.342Z,100.00
2023-04-01T04:23:41.386Z,100.00
2023-04-01T04:26:41.377Z,100.00
2023-04-01T04:29:41.379Z,100.00
2023-04-01T04:32:41.360Z,100.00
2023-04-01T04:35:41.372Z,100.00
2023-04-01T04:38:41.342Z,100.00
2023-04-01T04:41:41.363Z,100.00
2023-04-01T04:44:41.372Z,100.00
2023-04-01T04:47:41.390Z,100.00
2023-04-01T04:50:41.379Z,100.00
2023-04-01T04:53:41.359Z,100.00
2023-04-01T04:56:41.382Z,100.00
2023-04-01T04:59:41.415Z,100.00
2023-04-01T05:02:42.419Z,100.00
2023-04-01T05:05:42.372Z,100.00
2023-04-01T05:08:42.402Z,100.00
2023-04-01T05:11:42.340Z,100.00
2023-04-01T05:14:42.327Z,100.00
2023-04-01T05:17:35.400Z,100.00
2023-04-01T05:20:23.346Z,100.00
2023-04-01T05:23:23.366Z,100.00
2023-04-01T05:26:26.342Z,100.00
2023-04-01T05:29:26.340Z,100.00
2023-04-01T05:32:26.383Z,100.00
2023-04-01T05:35:27.393Z,100.00
2023-04-01T05:38:20.348Z,100.00
2023-04-01T05:41:13.355Z,100.00
2023-04-01T05:44:13.355Z,100.00
2023-04-01T05:47:19.322Z,100.00
2023-04-01T05:50:19.336Z,100.00
2023-04-01T05:53:19.326Z,100.00
2023-04-01T05:56:19.363Z,100.00
2023-04-01T05:59:20.385Z,100.00
2023-04-01T06:02:20.431Z,100.00
2023-04-01T06:05:33.553Z,100.00
2023-04-01T06:08:33.368Z,100.00
2023-04-01T06:11:48.338Z,100.00
2023-04-01T06:15:24.429Z,100.00
2023-04-01T06:19:06.380Z,100.00
2023-04-01T06:22:30.348Z,100.00
2023-04-01T06:26:00.345Z,100.00
2023-04-01T06:29:20.371Z,100.00
2023-04-01T06:32:51.413Z,100.00
2023-04-01T06:36:06.460Z,100.00
2023-04-01T06:39:18.335Z,100.00
2023-04-01T06:43:04.385Z,100.00
2023-04-01T06:46:15.404Z,100.00
2023-04-01T06:49:48.371Z,100.00
2023-04-01T06:53:20.369Z,100.00
2023-04-01T06:56:34.348Z,100.00
2023-04-01T06:59:37.402Z,100.00
2023-04-01T07:02:48.386Z,100.00
2023-04-01T07:05:49.396Z,100.00
2023-04-01T07:08:52.364Z,100.00
2023-04-01T07:11:53.358Z,100.00
2023-04-01T07:14:58.344Z,100.00
2023-04-01T07:17:58.399Z,100.00
2023-04-01T07:20:59.377Z,100.00
2023-04-01T07:24:00.361Z,100.00
2023-04-01T07:27:00.383Z,97.14
2023-04-01T07:30:01.355Z,94.81
2023-04-01T07:33:19.371Z,89.93
2023-04-01T07:36:37.349Z,89.51
2023-04-01T07:39:56.363Z,87.70
2023-04-01T07:43:20.433Z,83.87
2023-04-01T07:46:38.425Z,76.24
2023-04-01T07:49:47.325Z,79.60
2023-04-01T07:53:07.362Z,77.98
2023-04-01T07:56:27.341Z,73.23
2023-04-01T07:59:45.352Z,69.00
2023-04-01T08:03:07.409Z,65.68
2023-04-01T08:06:39.357Z,61.94
2023-04-01T08:09:58.333Z,62.61
2023-04-01T08:13:07.350Z,60.27
2023-04-01T08:16:19.408Z,61.41
2023-04-01T08:19:36.357Z,58.38
2023-04-01T08:22:49.374Z,56.61
2023-04-01T08:25:53.342Z,58.93
2023-04-01T08:29:01.376Z,55.74
2023-04-01T08:32:15.391Z,53.48
2023-04-01T08:35:24.374Z,53.22
2023-04-01T08:38:35.400Z,54.53
2023-04-01T08:41:57.384Z,60.24
2023-04-01T08:45:30.503Z,53.35
2023-04-01T08:48:48.340Z,54.85
2023-04-01T08:52:07.361Z,50.48
2023-04-01T08:55:28.367Z,56.16
2023-04-01T08:58:37.383Z,54.11
2023-04-01T09:01:56.410Z,52.13
2023-04-01T09:05:20.374Z,50.55
2023-04-01T09:08:38.357Z,53.50
2023-04-01T09:12:12.399Z,49.12
2023-04-01T09:15:49.499Z,52.96
2023-04-01T09:18:56.361Z,51.93
2023-04-01T09:21:56.360Z,47.28
2023-04-01T09:25:36.381Z,47.85
2023-04-01T09:28:53.402Z,49.35
2023-04-01T09:32:05.380Z,54.66
2023-04-01T09:35:08.374Z,51.84
2023-04-01T09:38:08.380Z,48.05
2023-04-01T09:41:42.362Z,44.28
2023-04-01T09:44:49.392Z,41.53
2023-04-01T09:48:04.377Z,38.50
2023-04-01T09:51:25.418Z,38.47
2023-04-01T09:54:36.404Z,38.49
2023-04-01T09:57:48.408Z,37.53
2023-04-01T10:01:13.447Z,37.48
2023-04-01T10:04:52.382Z,40.85
2023-04-01T10:08:24.470Z,44.65
2023-04-01T10:11:42.382Z,45.50
2023-04-01T10:14:56.400Z,45.28
2023-04-01T10:18:08.440Z,46.80
2023-04-01T10:21:36.428Z,50.24
2023-04-01T10:24:54.439Z,52.93
2023-04-01T10:28:16.418Z,57.46
2023-04-01T10:31:55.480Z,57.68
2023-04-01T10:35:36.626Z,58.47
2023-04-01T10:39:10.453Z,61.43
2023-04-01T10:42:28.401Z,61.65
2023-04-01T10:45:58.382Z,65.40
2023-04-01T10:49:17.423Z,66.25
2023-04-01T10:52:30.415Z,68.05
2023-04-01T10:55:52.397Z,68.67
2023-04-01T10:59:16.452Z,69.57
2023-04-01T11:02:50.445Z,68.20
2023-04-01T11:06:11.397Z,67.54
2023-04-01T11:09:17.422Z,66.96
2023-04-01T11:12:38.390Z,65.21
2023-04-01T11:15:49.456Z,58.24
2023-04-01T11:19:14.376Z,52.32
2023-04-01T11:22:40.392Z,48.78
2023-04-01T11:25:59.392Z,50.27
2023-04-01T11:29:49.787Z,52.74
2023-04-01T11:32:57.510Z,53.52
2023-04-01T11:36:15.473Z,55.62
2023-04-01T11:39:34.448Z,55.72
2023-04-01T11:43:04.432Z,55.93
2023-04-01T11:46:25.405Z,55.90
2023-04-01T11:49:58.402Z,57.68
2023-04-01T11:53:02.436Z,59.57
2023-04-01T11:56:16.428Z,60.70
2023-04-01T11:59:16.443Z,61.19
2023-04-01T12:02:45.453Z,61.59
2023-04-01T12:05:49.397Z,61.97
2023-04-01T12:09:04.424Z,58.89
2023-04-01T12:12:22.472Z,55.93
2023-04-01T12:15:34.667Z,55.16
2023-04-01T12:18:48.426Z,55.71
2023-04-01T12:21:53.409Z,57.06
2023-04-01T12:25:19.465Z,56.97
2023-04-01T12:28:39.397Z,59.58
2023-04-01T12:32:00.534Z,60.44
2023-04-01T12:35:08.407Z,57.24
2023-04-01T12:38:45.468Z,54.95
2023-04-01T12:42:07.439Z,54.08
2023-04-01T12:45:49.673Z,52.93
2023-04-01T12:49:14.443Z,51.17
2023-04-01T12:52:24.452Z,53.31
2023-04-01T12:55:36.404Z,54.82
2023-04-01T12:59:03.457Z,55.16
2023-04-01T13:02:16.421Z,55.34
2023-04-01T13:05:53.408Z,54.04
2023-04-01T13:09:02.414Z,53.04
2023-04-01T13:12:10.434Z,53.99
2023-04-01T13:15:27.562Z,52.44
2023-04-01T13:18:50.426Z,52.52
2023-04-01T13:22:05.434Z,53.98
2023-04-01T13:25:17.456Z,54.33
2023-04-01T13:28:24.446Z,55.99
2023-04-01T13:32:18.474Z,56.36
2023-04-01T13:35:30.454Z,56.09
2023-04-01T13:38:55.429Z,55.99
2023-04-01T13:42:07.450Z,56.17
2023-04-01T13:45:19.458Z,56.77
2023-04-01T13:48:48.433Z,56.27
2023-04-01T13:52:10.427Z,57.95
2023-04-01T13:55:28.440Z,57.67
2023-04-01T13:59:03.463Z,58.54
2023-04-01T14:02:15.462Z,58.04
2023-04-01T14:05:41.919Z,59.52
2023-04-01T14:09:00.451Z,60.54
2023-04-01T14:12:19.456Z,60.36
2023-04-01T14:15:27.485Z,61.75
2023-04-01T14:18:33.465Z,61.44
2023-04-01T14:21:52.477Z,62.81
2023-04-01T14:25:01.422Z,62.01
2023-04-01T14:28:38.482Z,61.63
2023-04-01T14:32:15.443Z,62.69
2023-04-01T14:35:33.572Z,63.13
2023-04-01T14:38:57.421Z,64.38
2023-04-01T14:42:11.855Z,63.48
2023-04-01T14:45:57.480Z,62.77
2023-04-01T14:49:16.485Z,64.57
2023-04-01T14:52:43.416Z,63.76
2023-04-01T14:55:51.470Z,63.53
2023-04-01T14:59:04.477Z,63.95
2023-04-01T15:02:25.524Z,63.01
2023-04-01T15:05:59.437Z,62.45
2023-04-01T15:09:09.477Z,61.98
2023-04-01T15:12:18.485Z,61.52
2023-04-01T15:15:24.442Z,61.94
2023-04-01T15:18:55.477Z,62.13
2023-04-01T15:22:21.512Z,61.42
2023-04-01T15:25:56.433Z,64.55
2023-04-01T15:29:11.451Z,63.77
2023-04-01T15:32:16.484Z,64.92
2023-04-01T15:35:34.728Z,63.63
2023-04-01T15:39:02.463Z,64.13
2023-04-01T15:42:08.470Z,65.25
2023-04-01T15:45:34.712Z,65.63
2023-04-01T15:49:11.471Z,65.96
2023-04-01T15:52:39.434Z,66.93
2023-04-01T15:56:12.483Z,68.49
2023-04-01T15:59:24.504Z,67.32
2023-04-01T16:02:37.559Z,69.74
2023-04-01T16:06:09.509Z,68.80
2023-04-01T16:09:27.455Z,70.24
2023-04-01T16:12:48.496Z,70.21
2023-04-01T16:16:06.474Z,71.31
2023-04-01T16:19:36.481Z,73.23
2023-04-01T16:22:55.450Z,73.81
2023-04-01T16:25:58.495Z,74.88
2023-04-01T16:29:26.484Z,76.09
2023-04-01T16:33:04.540Z,78.53
2023-04-01T16:36:24.449Z,77.52
2023-04-01T16:39:48.461Z,78.20
2023-04-01T16:43:07.474Z,78.59
2023-04-01T16:46:13.568Z,79.27
2023-04-01T16:49:25.477Z,79.27
2023-04-01T16:52:25.457Z,80.35
2023-04-01T16:55:35.447Z,81.31
2023-04-01T16:58:38.474Z,82.02
2023-04-01T17:02:19.484Z,82.78
2023-04-01T17:05:28.479Z,83.18
2023-04-01T17:08:42.478Z,84.02
2023-04-01T17:12:04.452Z,84.54
2023-04-01T17:15:19.881Z,85.40
2023-04-01T17:18:28.479Z,86.38
2023-04-01T17:21:31.492Z,87.31
2023-04-01T17:25:11.492Z,87.89
2023-04-01T17:28:24.464Z,88.41
2023-04-01T17:31:42.484Z,88.72
2023-04-01T17:34:52.463Z,89.39
2023-04-01T17:38:13.507Z,90.29
2023-04-01T17:41:22.498Z,90.83
2023-04-01T17:44:46.459Z,90.97
2023-04-01T17:47:52.579Z,93.03
2023-04-01T17:51:17.511Z,92.32
2023-04-01T17:54:32.480Z,92.02
2023-04-01T17:57:50.496Z,91.69
2023-04-01T18:01:15.490Z,91.83
2023-04-01T18:04:25.475Z,91.57
2023-04-01T18:07:46.496Z,91.41
2023-04-01T18:11:14.521Z,92.09
2023-04-01T18:14:46.464Z,91.95
2023-04-01T18:18:04.585Z,92.97
2023-04-01T18:21:37.483Z,93.44
2023-04-01T18:24:43.474Z,96.14
2023-04-01T18:27:52.466Z,94.80
2023-04-01T18:30:53.476Z,93.89
2023-04-01T18:34:14.489Z,95.50
2023-04-01T18:37:30.470Z,95.31
2023-04-01T18:40:36.736Z,96.11
2023-04-01T18:43:55.473Z,96.44
2023-04-01T18:47:21.474Z,96.47
2023-04-01T18:50:37.505Z,96.54
2023-04-01T18:54:06.470Z,97.39
2023-04-01T18:57:15.518Z,97.96
2023-04-01T19:00:52.591Z,98.20
2023-04-01T19:03:58.602Z,98.80
2023-04-01T19:07:04.496Z,99.86
2023-04-01T19:10:04.493Z,99.94
2023-04-01T19:13:42.453Z,100.00
2023-04-01T19:17:04.478Z,100.00
2023-04-01T19:20:18.456Z,100.00
2023-04-01T19:23:39.508Z,100.00
2023-04-01T19:26:48.494Z,100.00
2023-04-01T19:30:13.465Z,100.00
2023-04-01T19:33:28.503Z,100.00
2023-04-01T19:36:54.455Z,100.00
2023-04-01T19:39:57.450Z,100.00
2023-04-01T19:42:57.467Z,100.00
2023-04-01T19:46:06.526Z,100.00
2023-04-01T19:49:24.475Z,100.00
2023-04-01T19:52:38.490Z,100.00
2023-04-01T19:56:02.501Z,100.00
2023-04-01T19:59:19.451Z,100.00
2023-04-01T20:02:23.496Z,100.00
2023-04-01T20:05:49.454Z,100.00
2023-04-01T20:09:04.525Z,100.00
2023-04-01T20:12:26.487Z,100.00
2023-04-01T20:15:44.548Z,100.00
2023-04-01T20:19:01.499Z,100.00
2023-04-01T20:22:01.482Z,100.00
2023-04-01T20:25:01.468Z,100.00
2023-04-01T20:28:25.477Z,100.00
2023-04-01T20:31:40.483Z,100.00
2023-04-01T20:35:14.522Z,100.00
2023-04-01T20:38:29.459Z,100.00
2023-04-01T20:41:42.515Z,100.00
2023-04-01T20:44:57.441Z,100.00
2023-04-01T20:48:03.547Z,100.00
2023-04-01T20:51:12.491Z,100.00
2023-04-01T20:54:15.506Z,100.00
2023-04-01T20:57:27.543Z,100.00
2023-04-01T21:00:37.513Z,100.00
2023-04-01T21:03:49.470Z,100.00
2023-04-01T21:07:12.523Z,100.00
2023-04-01T21:10:25.476Z,100.00
2023-04-01T21:13:44.472Z,100.00
2023-04-01T21:17:06.502Z,100.00
2023-04-01T21:20:28.491Z,100.00
2023-04-01T21:23:49.485Z,100.00
2023-04-01T21:26:55.518Z,100.00
2023-04-01T21:30:29.458Z,100.00
2023-04-01T21:34:00.484Z,100.00
2023-04-01T21:37:02.508Z,100.00
2023-04-01T21:40:29.515Z,100.00
2023-04-01T21:43:47.513Z,100.00
2023-04-01T21:47:02.471Z,100.00
2023-04-01T21:50:41.480Z,100.00
2023-04-01T21:53:47.471Z,100.00
2023-04-01T21:57:02.529Z,100.00
2023-04-01T22:00:23.512Z,100.00
2023-04-01T22:04:14.546Z,100.00
2023-04-01T22:07:32.453Z,100.00
2023-04-01T22:11:06.517Z,100.00
2023-04-01T22:14:27.532Z,100.00
2023-04-01T22:17:40.534Z,100.00
2023-04-01T22:21:14.474Z,100.00
2023-04-01T22:24:14.489Z,100.00
2023-04-01T22:27:35.449Z,100.00
2023-04-01T22:30:38.477Z,100.00
2023-04-01T22:34:15.495Z,100.00
2023-04-01T22:37:18.515Z,100.00
2023-04-01T22:40:18.511Z,100.00
2023-04-01T22:43:25.466Z,100.00
2023-04-01T22:47:04.470Z,100.00
2023-04-01T22:50:11.482Z,100.00
2023-04-01T22:53:15.541Z,100.00
2023-04-01T22:56:19.481Z,100.00
2023-04-01T22:59:29.498Z,100.00
2023-04-01T23:02:33.536Z,100.00
2023-04-01T23:05:34.773Z,100.00
2023-04-01T23:08:55.494Z,100.00
2023-04-01T23:12:05.504Z,100.00
2023-04-01T23:15:13.499Z,100.00
2023-04-01T23:18:42.501Z,100.00
2023-04-01T23:21:57.508Z,100.00
2023-04-01T23:25:32.757Z,100.00
2023-04-01T23:28:57.479Z,100.00
2023-04-01T23:31:59.498Z,100.00
2023-04-01T23:35:07.496Z,100.00
2023-04-01T23:38:07.489Z,100.00
2023-04-01T23:41:09.476Z,100.00
2023-04-01T23:44:21.497Z,100.00
2023-04-01T23:47:23.493Z,100.00
2023-04-01T23:50:36.464Z,100.00
2023-04-01T23:53:40.459Z,100.00
2023-04-01T23:57:08.523Z,100.00
